createdAt,value
2017-12-27T00:00:41.273Z,0
2017-12-27T00:01:42.690Z,0
2017-12-27T00:02:44.104Z,0
2017-12-27T00:03:45.513Z,0
2017-12-27T00:04:46.923Z,0
2017-12-27T00:05:48.340Z,0
2017-12-27T00:06:49.757Z,0
2017-12-27T00:07:51.162Z,0
2017-12-27T00:08:52.582Z,0
2017-12-27T00:09:53.983Z,0
2017-12-27T00:10:55.394Z,0
2017-12-27T00:11:56.801Z,0
2017-12-27T00:12:58.210Z,0
2017-12-27T00:13:59.662Z,0
2017-12-27T00:15:01.087Z,0
2017-12-27T00:16:02.496Z,0
2017-12-27T00:17:03.906Z,0
2017-12-27T00:18:05.321Z,0
2017-12-27T00:19:06.731Z,0
2017-12-27T00:20:08.144Z,0
2017-12-27T00:21:09.569Z,0
2017-12-27T00:22:10.984Z,0
2017-12-27T00:23:12.389Z,0
2017-12-27T00:24:13.798Z,0
2017-12-27T00:25:15.215Z,0
2017-12-27T00:26:16.631Z,0
2017-12-27T00:27:18.140Z,0
2017-12-27T00:28:19.558Z,0
2017-12-27T00:29:20.966Z,0
2017-12-27T00:30:22.372Z,0
2017-12-27T00:31:23.795Z,0
2017-12-27T00:32:25.209Z,0
2017-12-27T00:33:26.621Z,0
2017-12-27T00:34:28.029Z,0
2017-12-27T00:35:29.435Z,0
2017-12-27T00:36:30.841Z,0
2017-12-27T00:37:32.242Z,0
2017-12-27T00:38:33.673Z,0
2017-12-27T00:39:35.089Z,0
2017-12-27T00:40:36.513Z,0
2017-12-27T00:41:37.915Z,0
2017-12-27T00:42:39.324Z,0
2017-12-27T00:43:40.740Z,0
2017-12-27T00:44:42.142Z,0
2017-12-27T00:45:43.557Z,0
2017-12-27T00:46:45.038Z,0
2017-12-27T00:47:46.449Z,0
2017-12-27T00:48:47.854Z,0
2017-12-27T00:49:49.264Z,0
2017-12-27T00:50:50.679Z,0
2017-12-27T00:51:52.083Z,0
2017-12-27T00:52:53.501Z,0
2017-12-27T00:53:54.903Z,0
2017-12-27T00:54:56.323Z,0
2017-12-27T00:55:57.730Z,0
2017-12-27T00:56:59.145Z,0
2017-12-27T00:58:00.560Z,0
2017-12-27T00:59:01.979Z,0
2017-12-27T01:00:03.396Z,0
2017-12-27T01:01:04.797Z,0
2017-12-27T01:02:06.211Z,0
2017-12-27T01:03:07.614Z,0
2017-12-27T01:04:09.040Z,0
2017-12-27T01:05:10.447Z,0
2017-12-27T01:06:11.855Z,0
2017-12-27T01:07:13.281Z,0
2017-12-27T01:08:14.686Z,0
2017-12-27T01:09:16.140Z,0
2017-12-27T01:10:17.521Z,0
2017-12-27T01:11:18.935Z,0
2017-12-27T01:12:20.341Z,0
2017-12-27T01:13:21.752Z,0
2017-12-27T01:14:23.163Z,0
2017-12-27T01:15:24.569Z,0
2017-12-27T01:16:25.981Z,0
2017-12-27T01:17:27.397Z,0
2017-12-27T01:18:28.810Z,0
2017-12-27T01:19:30.226Z,0
2017-12-27T01:20:31.637Z,0
2017-12-27T01:21:33.042Z,0
2017-12-27T01:22:34.444Z,0
2017-12-27T01:23:35.851Z,0
2017-12-27T01:24:37.261Z,0
2017-12-27T01:25:38.664Z,0
2017-12-27T01:26:40.068Z,0
2017-12-27T01:27:41.478Z,0
2017-12-27T01:28:42.878Z,0
2017-12-27T01:29:44.284Z,0
2017-12-27T01:30:45.690Z,0
2017-12-27T01:31:47.116Z,0
2017-12-27T01:32:48.520Z,0
2017-12-27T01:33:49.933Z,0
2017-12-27T01:34:51.344Z,0
2017-12-27T01:35:52.831Z,0
2017-12-27T01:36:54.238Z,0
2017-12-27T01:37:55.650Z,0
2017-12-27T01:38:57.058Z,0
2017-12-27T01:39:58.464Z,0
2017-12-27T01:40:59.868Z,0
2017-12-27T01:42:01.285Z,0
2017-12-27T01:43:02.697Z,0
2017-12-27T01:44:04.107Z,0
2017-12-27T01:45:05.523Z,0
2017-12-27T01:46:06.944Z,0
2017-12-27T01:47:08.346Z,0
2017-12-27T01:48:09.755Z,0
2017-12-27T01:49:11.168Z,0
2017-12-27T01:50:12.573Z,0
2017-12-27T01:51:13.979Z,0
2017-12-27T01:52:15.385Z,0
2017-12-27T01:53:16.803Z,0
2017-12-27T01:54:18.226Z,0
2017-12-27T01:55:19.699Z,0
2017-12-27T01:56:21.120Z,0
2017-12-27T01:57:22.526Z,0
2017-12-27T01:58:23.926Z,0
2017-12-27T01:59:25.339Z,0
2017-12-27T02:00:26.748Z,0
2017-12-27T02:01:28.165Z,0
2017-12-27T02:02:29.585Z,0
2017-12-27T02:03:31.001Z,0
2017-12-27T02:04:32.399Z,0
2017-12-27T02:05:33.807Z,0
2017-12-27T02:06:35.225Z,0
2017-12-27T02:07:36.644Z,0
2017-12-27T02:08:38.047Z,0
2017-12-27T02:09:39.457Z,0
2017-12-27T02:10:40.868Z,0
2017-12-27T02:11:42.274Z,0
2017-12-27T02:12:43.683Z,0
2017-12-27T02:13:45.097Z,0
2017-12-27T02:14:46.508Z,0
2017-12-27T02:15:47.919Z,0
2017-12-27T02:16:49.339Z,0
2017-12-27T02:17:50.751Z,0
2017-12-27T02:18:52.154Z,0
2017-12-27T02:19:53.570Z,0
2017-12-27T02:20:54.976Z,0
2017-12-27T02:21:56.388Z,0
2017-12-27T02:22:57.786Z,0
2017-12-27T02:23:59.199Z,0
2017-12-27T02:25:00.614Z,0
2017-12-27T02:26:02.026Z,0
2017-12-27T02:27:03.435Z,0
2017-12-27T02:28:04.847Z,0
2017-12-27T02:29:06.257Z,0
2017-12-27T02:30:07.661Z,0
2017-12-27T02:31:09.078Z,0
2017-12-27T02:32:10.491Z,0
2017-12-27T02:33:11.896Z,0
2017-12-27T02:34:13.309Z,0
2017-12-27T02:35:14.717Z,0
2017-12-27T02:36:16.124Z,0
2017-12-27T02:37:17.536Z,0
2017-12-27T02:38:18.944Z,0
2017-12-27T02:39:20.458Z,0
2017-12-27T02:40:21.870Z,0
2017-12-27T02:41:23.275Z,0
2017-12-27T02:42:24.679Z,0
2017-12-27T02:43:26.097Z,0
2017-12-27T02:44:27.497Z,0
2017-12-27T02:45:28.926Z,0
2017-12-27T02:46:30.341Z,0
2017-12-27T02:47:31.745Z,0
2017-12-27T02:48:33.154Z,0
2017-12-27T02:49:34.564Z,0
2017-12-27T02:50:35.971Z,0
2017-12-27T02:51:37.379Z,0
2017-12-27T02:52:38.787Z,0
2017-12-27T02:53:40.193Z,0
2017-12-27T02:54:41.601Z,0
2017-12-27T02:55:43.020Z,0
2017-12-27T02:56:44.477Z,0
2017-12-27T02:57:45.838Z,0
2017-12-27T02:58:47.250Z,0
2017-12-27T02:59:48.662Z,0
2017-12-27T03:00:50.068Z,0
2017-12-27T03:01:51.504Z,0
2017-12-27T03:02:52.913Z,0
2017-12-27T03:03:54.323Z,0
2017-12-27T03:04:55.727Z,0
2017-12-27T03:05:57.136Z,0
2017-12-27T03:06:58.546Z,0
2017-12-27T03:07:59.974Z,0
2017-12-27T03:09:01.379Z,0
2017-12-27T03:10:02.835Z,0
2017-12-27T03:11:04.242Z,0
2017-12-27T03:12:05.653Z,0
2017-12-27T03:13:07.057Z,0
2017-12-27T03:14:08.461Z,0
2017-12-27T03:15:09.878Z,0
2017-12-27T03:16:11.284Z,0
2017-12-27T03:17:12.699Z,0
2017-12-27T03:18:14.114Z,0
2017-12-27T03:19:15.539Z,0
2017-12-27T03:20:16.956Z,0
2017-12-27T03:21:18.367Z,0
2017-12-27T03:22:19.774Z,0
2017-12-27T03:23:21.186Z,0
2017-12-27T03:24:22.595Z,0
2017-12-27T03:25:24.014Z,0
2017-12-27T03:26:25.418Z,0
2017-12-27T03:27:26.827Z,0
2017-12-27T03:28:28.247Z,0
2017-12-27T03:29:29.655Z,0
2017-12-27T03:30:31.053Z,0
2017-12-27T03:31:32.468Z,0
2017-12-27T03:32:33.876Z,0
2017-12-27T03:33:35.284Z,0
2017-12-27T03:34:36.691Z,0
2017-12-27T03:35:38.097Z,0
2017-12-27T03:36:39.503Z,0
2017-12-27T03:37:40.916Z,0
2017-12-27T03:38:42.322Z,0
2017-12-27T03:39:43.742Z,0
2017-12-27T03:40:45.158Z,0
2017-12-27T03:41:46.567Z,0
2017-12-27T03:42:47.973Z,0
2017-12-27T03:43:49.386Z,0
2017-12-27T03:44:50.794Z,0
2017-12-27T03:45:52.204Z,0
2017-12-27T03:46:53.605Z,0
2017-12-27T03:47:55.020Z,0
2017-12-27T03:48:56.435Z,0
2017-12-27T03:49:57.842Z,0
2017-12-27T03:50:59.269Z,0
2017-12-27T03:52:00.684Z,0
2017-12-27T03:53:02.092Z,0
2017-12-27T03:54:03.493Z,0
2017-12-27T03:55:04.911Z,0
2017-12-27T03:56:06.318Z,0
2017-12-27T03:57:07.724Z,0
2017-12-27T03:58:09.136Z,0
2017-12-27T03:59:10.542Z,0
2017-12-27T04:00:11.951Z,0
2017-12-27T04:01:13.368Z,0
2017-12-27T04:02:14.776Z,0
2017-12-27T04:03:16.183Z,0
2017-12-27T04:04:17.600Z,0
2017-12-27T04:05:19.009Z,0
2017-12-27T04:06:20.417Z,0
2017-12-27T04:07:21.829Z,0
2017-12-27T04:08:23.244Z,0
2017-12-27T04:09:24.652Z,0
2017-12-27T04:10:26.066Z,0
2017-12-27T04:11:27.475Z,0
2017-12-27T04:12:28.885Z,0
2017-12-27T04:13:30.299Z,0
2017-12-27T04:14:31.706Z,0
2017-12-27T04:15:33.114Z,0
2017-12-27T04:16:34.528Z,0
2017-12-27T04:17:35.935Z,0
2017-12-27T04:18:37.345Z,0
2017-12-27T04:19:38.758Z,0
2017-12-27T04:20:40.162Z,0
2017-12-27T04:21:41.564Z,0
2017-12-27T04:22:42.977Z,0
2017-12-27T04:23:44.425Z,0
2017-12-27T04:24:45.833Z,0
2017-12-27T04:25:47.241Z,0
2017-12-27T04:26:48.651Z,0
2017-12-27T04:27:50.057Z,0
2017-12-27T04:28:51.467Z,0
2017-12-27T04:29:52.873Z,0
2017-12-27T04:30:54.410Z,0
2017-12-27T04:31:55.825Z,0
2017-12-27T04:32:57.232Z,0
2017-12-27T04:33:58.636Z,0
2017-12-27T04:35:00.047Z,0
2017-12-27T04:36:01.471Z,0
2017-12-27T04:37:02.876Z,0
2017-12-27T04:38:04.296Z,0
2017-12-27T04:39:05.709Z,0
2017-12-27T04:40:07.113Z,0
2017-12-27T04:41:08.523Z,0
2017-12-27T04:42:09.934Z,0
2017-12-27T04:43:11.347Z,0
2017-12-27T04:44:12.758Z,0
2017-12-27T04:45:14.165Z,0
2017-12-27T04:46:15.575Z,0
2017-12-27T04:47:16.991Z,0
2017-12-27T04:48:18.405Z,0
2017-12-27T04:49:19.809Z,0
2017-12-27T04:50:21.225Z,0
2017-12-27T04:51:22.632Z,0
2017-12-27T04:52:24.048Z,0
2017-12-27T04:53:25.457Z,0
2017-12-27T04:54:26.871Z,20
2017-12-27T04:55:28.275Z,20
2017-12-27T04:56:29.683Z,20
2017-12-27T04:57:31.092Z,16
2017-12-27T04:58:32.510Z,16
2017-12-27T04:59:35.102Z,16
2017-12-27T05:00:36.506Z,16
2017-12-27T05:01:37.915Z,16
2017-12-27T05:02:39.325Z,16
2017-12-27T05:03:40.742Z,16
2017-12-27T05:04:42.159Z,16
2017-12-27T05:05:43.576Z,16
2017-12-27T05:06:44.980Z,16
2017-12-27T05:07:46.396Z,16
2017-12-27T05:08:47.807Z,16
2017-12-27T05:09:49.220Z,16
2017-12-27T05:10:50.635Z,12
2017-12-27T05:11:52.050Z,12
2017-12-27T05:12:53.464Z,12
2017-12-27T05:13:54.870Z,12
2017-12-27T05:14:56.278Z,12
2017-12-27T05:15:57.692Z,12
2017-12-27T05:16:59.105Z,12
2017-12-27T05:18:00.525Z,12
2017-12-27T05:19:01.920Z,16
2017-12-27T05:20:03.339Z,16
2017-12-27T05:21:04.749Z,16
2017-12-27T05:22:06.158Z,12
2017-12-27T05:23:07.576Z,16
2017-12-27T05:24:08.987Z,16
2017-12-27T05:25:10.398Z,16
2017-12-27T05:26:11.812Z,16
2017-12-27T05:27:13.256Z,16
2017-12-27T05:28:14.747Z,16
2017-12-27T05:29:16.157Z,16
2017-12-27T05:30:17.568Z,16
2017-12-27T05:31:18.982Z,16
2017-12-27T05:32:20.391Z,16
2017-12-27T05:33:22.471Z,16
2017-12-27T05:34:23.889Z,16
2017-12-27T05:35:25.301Z,16
2017-12-27T05:36:27.423Z,16
2017-12-27T05:37:28.931Z,16
2017-12-27T05:38:30.007Z,16
2017-12-27T05:39:32.140Z,16
2017-12-27T05:40:33.562Z,16
2017-12-27T05:41:34.974Z,16
2017-12-27T05:42:36.390Z,16
2017-12-27T05:43:38.442Z,20
2017-12-27T05:44:39.936Z,20
2017-12-27T05:45:42.111Z,20
2017-12-27T05:46:43.528Z,16
2017-12-27T05:47:44.960Z,20
2017-12-27T05:48:46.355Z,16
2017-12-27T05:49:48.546Z,16
2017-12-27T05:50:50.051Z,16
2017-12-27T05:51:51.122Z,0
2017-12-27T05:52:53.382Z,0
2017-12-27T05:53:55.550Z,0
2017-12-27T05:54:56.167Z,0
2017-12-27T05:55:57.584Z,0
2017-12-27T05:56:59.546Z,0
2017-12-27T05:58:01.174Z,0
2017-12-27T05:59:03.256Z,0
2017-12-27T06:00:04.674Z,0
2017-12-27T06:01:06.091Z,0
2017-12-27T06:02:08.218Z,0
2017-12-27T06:03:09.638Z,0
2017-12-27T06:04:11.052Z,0
2017-12-27T06:05:12.456Z,0
2017-12-27T06:06:13.865Z,0
2017-12-27T06:07:16.307Z,0
2017-12-27T06:08:17.728Z,0
2017-12-27T06:09:19.132Z,0
2017-12-27T06:10:20.546Z,0
2017-12-27T06:11:21.969Z,0
2017-12-27T06:12:23.377Z,0
2017-12-27T06:13:24.875Z,0
2017-12-27T06:14:26.288Z,0
2017-12-27T06:15:27.704Z,0
2017-12-27T06:16:29.677Z,0
2017-12-27T06:17:31.765Z,0
2017-12-27T06:18:34.019Z,0
2017-12-27T06:19:35.430Z,0
2017-12-27T06:20:36.837Z,0
2017-12-27T06:21:38.253Z,0
2017-12-27T06:22:39.661Z,0
2017-12-27T06:23:41.070Z,0
2017-12-27T06:24:42.485Z,0
2017-12-27T06:25:43.897Z,0
2017-12-27T06:26:45.360Z,0
2017-12-27T06:27:46.770Z,0
2017-12-27T06:28:48.189Z,0
2017-12-27T06:29:49.602Z,0
2017-12-27T06:30:51.650Z,0
2017-12-27T06:31:53.768Z,0
2017-12-27T06:32:55.182Z,0
2017-12-27T06:33:56.592Z,0
2017-12-27T06:34:58.010Z,0
2017-12-27T06:35:59.426Z,0
2017-12-27T06:37:00.843Z,0
2017-12-27T06:38:03.086Z,0
2017-12-27T06:39:03.613Z,0
2017-12-27T06:40:05.587Z,0
2017-12-27T06:41:07.200Z,0
2017-12-27T06:42:09.470Z,0
2017-12-27T06:43:10.877Z,0
2017-12-27T06:44:12.288Z,0
2017-12-27T06:45:13.693Z,0
2017-12-27T06:46:15.104Z,0
2017-12-27T06:47:17.162Z,0
2017-12-27T06:48:18.582Z,0
2017-12-27T06:49:19.987Z,0
2017-12-27T06:50:21.403Z,0
2017-12-27T06:51:22.815Z,0
2017-12-27T06:52:24.229Z,0
2017-12-27T06:53:25.648Z,0
2017-12-27T06:54:27.062Z,0
2017-12-27T06:55:28.474Z,0
2017-12-27T06:56:29.888Z,0
2017-12-27T06:57:31.301Z,0
2017-12-27T06:58:52.942Z,0
2017-12-27T06:59:54.377Z,0
2017-12-27T07:00:55.757Z,0
2017-12-27T07:01:57.158Z,0
2017-12-27T07:02:58.567Z,0
2017-12-27T07:03:59.976Z,0
2017-12-27T07:05:01.386Z,0
2017-12-27T07:06:02.826Z,0
2017-12-27T07:07:04.239Z,0
2017-12-27T07:08:05.648Z,0
2017-12-27T07:09:07.072Z,0
2017-12-27T07:10:08.483Z,0
2017-12-27T07:11:09.893Z,0
2017-12-27T07:12:11.311Z,0
2017-12-27T07:13:12.724Z,0
2017-12-27T07:14:14.126Z,0
2017-12-27T07:15:15.539Z,0
2017-12-27T07:16:16.958Z,0
2017-12-27T07:17:18.364Z,4
2017-12-27T07:18:19.777Z,4
2017-12-27T07:19:21.179Z,4
2017-12-27T07:20:22.610Z,4
2017-12-27T07:21:24.027Z,4
2017-12-27T07:22:25.424Z,0
2017-12-27T07:23:26.838Z,4
2017-12-27T07:24:28.250Z,4
2017-12-27T07:25:29.650Z,4
2017-12-27T07:26:31.073Z,8
2017-12-27T07:27:32.481Z,4
2017-12-27T07:28:33.898Z,4
2017-12-27T07:29:35.294Z,8
2017-12-27T07:30:36.705Z,8
2017-12-27T07:31:38.114Z,12
2017-12-27T07:32:39.526Z,12
2017-12-27T07:33:40.957Z,12
2017-12-27T07:34:42.370Z,12
2017-12-27T07:35:43.778Z,16
2017-12-27T07:36:45.198Z,16
2017-12-27T07:37:46.618Z,20
2017-12-27T07:38:48.024Z,24
2017-12-27T07:39:49.429Z,24
2017-12-27T07:40:50.837Z,28
2017-12-27T07:41:52.246Z,28
2017-12-27T07:42:53.654Z,32
2017-12-27T07:43:55.066Z,32
2017-12-27T07:44:56.480Z,36
2017-12-27T07:45:57.897Z,36
2017-12-27T07:46:59.299Z,40
2017-12-27T07:48:00.715Z,40
2017-12-27T07:49:02.186Z,44
2017-12-27T07:50:03.596Z,48
2017-12-27T07:51:05.006Z,56
2017-12-27T07:52:06.414Z,60
2017-12-27T07:53:07.828Z,64
2017-12-27T07:54:09.239Z,68
2017-12-27T07:55:10.640Z,72
2017-12-27T07:56:12.051Z,80
2017-12-27T07:57:13.471Z,88
2017-12-27T07:58:14.880Z,92
2017-12-27T07:59:16.291Z,96
2017-12-27T08:00:17.704Z,100
2017-12-27T08:01:19.175Z,100
2017-12-27T08:02:20.599Z,112
2017-12-27T08:03:21.999Z,120
2017-12-27T08:04:23.410Z,124
2017-12-27T08:05:24.814Z,128
2017-12-27T08:06:26.237Z,136
2017-12-27T08:07:27.658Z,140
2017-12-27T08:08:29.078Z,148
2017-12-27T08:09:30.490Z,148
2017-12-27T08:10:31.905Z,152
2017-12-27T08:11:33.312Z,156
2017-12-27T08:12:34.727Z,156
2017-12-27T08:13:36.139Z,160
2017-12-27T08:14:37.562Z,164
2017-12-27T08:15:38.966Z,164
2017-12-27T08:16:40.382Z,164
2017-12-27T08:17:41.799Z,168
2017-12-27T08:18:43.224Z,160
2017-12-27T08:19:44.631Z,164
2017-12-27T08:20:46.039Z,156
2017-12-27T08:21:47.456Z,164
2017-12-27T08:22:48.884Z,160
2017-12-27T08:23:50.280Z,164
2017-12-27T08:24:51.692Z,164
2017-12-27T08:25:53.101Z,164
2017-12-27T08:26:54.519Z,168
2017-12-27T08:27:55.933Z,168
2017-12-27T08:28:57.349Z,184
2017-12-27T08:29:58.766Z,200
2017-12-27T08:31:00.181Z,212
2017-12-27T08:32:01.597Z,232
2017-12-27T08:33:03.008Z,248
2017-12-27T08:34:04.421Z,268
2017-12-27T08:35:05.829Z,280
2017-12-27T08:36:07.234Z,292
2017-12-27T08:37:08.646Z,300
2017-12-27T08:38:10.060Z,316
2017-12-27T08:39:11.483Z,328
2017-12-27T08:40:12.890Z,344
2017-12-27T08:41:14.306Z,360
2017-12-27T08:42:15.720Z,380
2017-12-27T08:43:17.141Z,392
2017-12-27T08:44:18.545Z,396
2017-12-27T08:45:19.971Z,424
2017-12-27T08:46:21.377Z,440
2017-12-27T08:47:22.814Z,440
2017-12-27T08:48:24.200Z,456
2017-12-27T08:49:25.611Z,468
2017-12-27T08:50:27.026Z,476
2017-12-27T08:51:28.435Z,476
2017-12-27T08:52:29.847Z,472
2017-12-27T08:53:31.260Z,464
2017-12-27T08:54:32.676Z,456
2017-12-27T08:55:34.089Z,456
2017-12-27T08:56:35.496Z,452
2017-12-27T08:57:36.985Z,464
2017-12-27T08:58:38.398Z,452
2017-12-27T08:59:39.810Z,456
2017-12-27T09:00:41.219Z,444
2017-12-27T09:01:42.635Z,444
2017-12-27T09:02:44.052Z,436
2017-12-27T09:03:45.460Z,432
2017-12-27T09:04:46.869Z,436
2017-12-27T09:05:48.283Z,440
2017-12-27T09:06:49.693Z,424
2017-12-27T09:07:51.103Z,440
2017-12-27T09:08:52.520Z,472
2017-12-27T09:09:53.935Z,500
2017-12-27T09:10:55.353Z,548
2017-12-27T09:11:56.757Z,564
2017-12-27T09:12:58.163Z,600
2017-12-27T09:13:59.580Z,664
2017-12-27T09:15:00.989Z,744
2017-12-27T09:16:02.413Z,804
2017-12-27T09:17:03.838Z,836
2017-12-27T09:18:05.249Z,832
2017-12-27T09:19:06.667Z,824
2017-12-27T09:20:08.084Z,804
2017-12-27T09:21:09.500Z,780
2017-12-27T09:22:10.899Z,768
2017-12-27T09:23:12.318Z,756
2017-12-27T09:24:13.727Z,756
2017-12-27T09:25:15.137Z,744
2017-12-27T09:26:16.560Z,716
2017-12-27T09:27:17.974Z,732
2017-12-27T09:28:19.387Z,720
2017-12-27T09:29:20.805Z,752
2017-12-27T09:30:22.217Z,792
2017-12-27T09:31:23.633Z,824
2017-12-27T09:32:25.056Z,816
2017-12-27T09:33:26.491Z,804
2017-12-27T09:34:27.915Z,784
2017-12-27T09:35:29.317Z,780
2017-12-27T09:36:30.726Z,756
2017-12-27T09:37:32.147Z,748
2017-12-27T09:38:33.560Z,764
2017-12-27T09:39:34.982Z,768
2017-12-27T09:40:36.387Z,784
2017-12-27T09:41:37.807Z,792
2017-12-27T09:42:39.239Z,792
2017-12-27T09:43:40.660Z,788
2017-12-27T09:44:42.070Z,760
2017-12-27T09:45:43.479Z,736
2017-12-27T09:46:44.898Z,748
2017-12-27T09:47:46.307Z,732
2017-12-27T09:48:47.731Z,708
2017-12-27T09:49:49.137Z,696
2017-12-27T09:50:50.562Z,748
2017-12-27T09:51:51.967Z,788
2017-12-27T09:52:53.380Z,796
2017-12-27T09:53:54.794Z,808
2017-12-27T09:54:56.202Z,792
2017-12-27T09:55:57.629Z,852
2017-12-27T09:56:59.038Z,888
2017-12-27T09:58:00.460Z,896
2017-12-27T09:59:01.877Z,908
2017-12-27T10:00:03.295Z,916
2017-12-27T10:01:04.718Z,876
2017-12-27T10:02:06.127Z,888
2017-12-27T10:03:07.540Z,912
2017-12-27T10:04:08.957Z,932
2017-12-27T10:05:10.372Z,944
2017-12-27T10:06:11.788Z,920
2017-12-27T10:07:13.200Z,908
2017-12-27T10:08:14.624Z,884
2017-12-27T10:09:16.025Z,848
2017-12-27T10:10:17.441Z,876
2017-12-27T10:11:18.852Z,876
2017-12-27T10:12:20.263Z,904
2017-12-27T10:13:21.676Z,924
2017-12-27T10:14:23.102Z,912
2017-12-27T10:15:24.498Z,880
2017-12-27T10:16:25.912Z,824
2017-12-27T10:17:27.327Z,796
2017-12-27T10:18:28.738Z,764
2017-12-27T10:19:30.155Z,764
2017-12-27T10:20:31.608Z,756
2017-12-27T10:21:33.020Z,728
2017-12-27T10:22:34.447Z,708
2017-12-27T10:23:35.852Z,684
2017-12-27T10:24:37.257Z,656
2017-12-27T10:25:38.680Z,640
2017-12-27T10:26:40.124Z,644
2017-12-27T10:27:41.529Z,632
2017-12-27T10:28:42.951Z,640
2017-12-27T10:29:44.356Z,644
2017-12-27T10:30:45.783Z,624
2017-12-27T10:31:47.200Z,648
2017-12-27T10:32:48.653Z,648
2017-12-27T10:33:50.063Z,652
2017-12-27T10:34:51.472Z,648
2017-12-27T10:35:52.882Z,652
2017-12-27T10:36:54.298Z,656
2017-12-27T10:37:55.716Z,660
2017-12-27T10:38:57.185Z,672
2017-12-27T10:39:58.596Z,680
2017-12-27T10:41:00.013Z,688
2017-12-27T10:42:01.417Z,704
2017-12-27T10:43:02.831Z,716
2017-12-27T10:44:04.244Z,732
2017-12-27T10:45:05.661Z,736
2017-12-27T10:46:07.074Z,768
2017-12-27T10:47:08.490Z,768
2017-12-27T10:48:09.912Z,784
2017-12-27T10:49:11.323Z,792
2017-12-27T10:50:12.729Z,792
2017-12-27T10:51:14.140Z,796
2017-12-27T10:52:15.548Z,776
2017-12-27T10:53:16.967Z,780
2017-12-27T10:54:18.376Z,780
2017-12-27T10:55:19.791Z,776
2017-12-27T10:56:21.201Z,776
2017-12-27T10:57:22.612Z,768
2017-12-27T10:58:24.021Z,776
2017-12-27T10:59:25.440Z,780
2017-12-27T11:00:26.851Z,768
2017-12-27T11:01:28.275Z,768
2017-12-27T11:02:29.696Z,772
2017-12-27T11:03:31.112Z,796
2017-12-27T11:04:32.520Z,832
2017-12-27T11:05:33.932Z,848
2017-12-27T11:06:35.352Z,884
2017-12-27T11:07:36.773Z,944
2017-12-27T11:08:38.192Z,980
2017-12-27T11:09:39.608Z,1024
2017-12-27T11:10:41.030Z,1060
2017-12-27T11:11:42.452Z,1088
2017-12-27T11:12:43.864Z,1068
2017-12-27T11:13:45.282Z,1048
2017-12-27T11:14:46.701Z,1032
2017-12-27T11:15:48.112Z,1004
2017-12-27T11:16:49.527Z,976
2017-12-27T11:17:50.941Z,972
2017-12-27T11:18:52.374Z,976
2017-12-27T11:19:53.794Z,980
2017-12-27T11:20:55.207Z,964
2017-12-27T11:21:56.621Z,952
2017-12-27T11:22:58.039Z,964
2017-12-27T11:23:59.460Z,924
2017-12-27T11:25:00.872Z,912
2017-12-27T11:26:02.291Z,884
2017-12-27T11:27:03.698Z,836
2017-12-27T11:28:05.111Z,796
2017-12-27T11:29:06.530Z,784
2017-12-27T11:30:07.941Z,840
2017-12-27T11:31:09.355Z,748
2017-12-27T11:32:10.759Z,796
2017-12-27T11:33:12.175Z,868
2017-12-27T11:34:13.585Z,940
2017-12-27T11:35:14.997Z,988
2017-12-27T11:36:16.419Z,976
2017-12-27T11:37:17.841Z,852
2017-12-27T11:38:19.262Z,756
2017-12-27T11:39:20.673Z,712
2017-12-27T11:40:22.085Z,784
2017-12-27T11:41:23.505Z,904
2017-12-27T11:42:24.918Z,908
2017-12-27T11:43:26.336Z,896
2017-12-27T11:44:27.749Z,960
2017-12-27T11:45:29.159Z,964
2017-12-27T11:46:30.572Z,920
2017-12-27T11:47:31.981Z,888
2017-12-27T11:48:33.704Z,880
2017-12-27T11:49:35.119Z,924
2017-12-27T11:50:36.538Z,1024
2017-12-27T11:51:37.961Z,1140
2017-12-27T11:52:39.377Z,1192
2017-12-27T11:53:40.792Z,1112
2017-12-27T11:54:42.203Z,1100
2017-12-27T11:55:43.617Z,1200
2017-12-27T11:56:45.036Z,1444
2017-12-27T11:57:46.452Z,1596
2017-12-27T11:58:47.874Z,1588
2017-12-27T11:59:49.359Z,1452
2017-12-27T12:00:50.730Z,1340
2017-12-27T12:01:52.157Z,1340
2017-12-27T12:02:53.580Z,1356
2017-12-27T12:03:55.005Z,1088
2017-12-27T12:04:56.427Z,976
2017-12-27T12:05:57.844Z,920
2017-12-27T12:06:59.254Z,892
2017-12-27T12:08:00.680Z,916
2017-12-27T12:09:02.102Z,756
2017-12-27T12:10:03.519Z,628
2017-12-27T12:11:04.934Z,536
2017-12-27T12:12:06.345Z,544
2017-12-27T12:13:07.765Z,532
2017-12-27T12:14:09.191Z,544
2017-12-27T12:15:10.606Z,560
2017-12-27T12:16:12.026Z,620
2017-12-27T12:17:13.498Z,656
2017-12-27T12:18:14.909Z,664
2017-12-27T12:19:16.327Z,716
2017-12-27T12:20:17.739Z,748
2017-12-27T12:21:19.161Z,776
2017-12-27T12:22:20.584Z,736
2017-12-27T12:23:22.013Z,908
2017-12-27T12:24:23.742Z,1024
2017-12-27T12:25:25.166Z,1040
2017-12-27T12:26:26.586Z,1108
2017-12-27T12:27:28.023Z,1084
2017-12-27T12:28:29.439Z,1044
2017-12-27T12:29:30.897Z,844
2017-12-27T12:30:32.319Z,1012
2017-12-27T12:31:33.732Z,1224
2017-12-27T12:32:35.142Z,1024
2017-12-27T12:33:36.592Z,844
2017-12-27T12:34:38.101Z,776
2017-12-27T12:35:39.516Z,816
2017-12-27T12:36:40.937Z,808
2017-12-27T12:37:42.357Z,864
2017-12-27T12:38:43.773Z,820
2017-12-27T12:39:45.191Z,792
2017-12-27T12:40:46.613Z,1308
2017-12-27T12:41:48.064Z,888
2017-12-27T12:42:49.483Z,1100
2017-12-27T12:43:50.913Z,1220
2017-12-27T12:44:52.335Z,1160
2017-12-27T12:45:53.750Z,1076
2017-12-27T12:46:55.189Z,1016
2017-12-27T12:47:56.602Z,960
2017-12-27T12:48:58.029Z,780
2017-12-27T12:49:59.442Z,648
2017-12-27T12:51:00.872Z,764
2017-12-27T12:52:02.294Z,1008
2017-12-27T12:53:03.712Z,816
2017-12-27T12:54:05.268Z,988
2017-12-27T12:55:06.649Z,864
2017-12-27T12:56:08.065Z,716
2017-12-27T12:57:09.493Z,700
2017-12-27T12:58:10.896Z,672
2017-12-27T12:59:12.313Z,700
2017-12-27T13:00:13.731Z,704
2017-12-27T13:01:15.149Z,644
2017-12-27T13:02:16.574Z,572
2017-12-27T13:03:17.979Z,556
2017-12-27T13:04:19.399Z,532
2017-12-27T13:05:20.816Z,592
2017-12-27T13:06:22.222Z,672
2017-12-27T13:07:23.642Z,672
2017-12-27T13:08:25.058Z,336
2017-12-27T13:09:26.490Z,280
2017-12-27T13:10:27.909Z,328
2017-12-27T13:11:29.318Z,668
2017-12-27T13:12:30.729Z,652
2017-12-27T13:13:32.151Z,704
2017-12-27T13:14:33.558Z,720
2017-12-27T13:15:34.974Z,764
2017-12-27T13:16:36.388Z,700
2017-12-27T13:17:37.804Z,576
2017-12-27T13:18:39.211Z,604
2017-12-27T13:19:40.688Z,624
2017-12-27T13:20:42.099Z,624
2017-12-27T13:21:43.523Z,576
2017-12-27T13:22:44.949Z,516
2017-12-27T13:23:46.362Z,508
2017-12-27T13:24:47.784Z,452
2017-12-27T13:25:49.202Z,416
2017-12-27T13:26:50.621Z,416
2017-12-27T13:27:52.040Z,392
2017-12-27T13:28:53.464Z,388
2017-12-27T13:29:54.878Z,408
2017-12-27T13:30:56.301Z,504
2017-12-27T13:31:57.734Z,440
2017-12-27T13:32:59.152Z,436
2017-12-27T13:34:00.581Z,404
2017-12-27T13:35:01.989Z,364
2017-12-27T13:36:03.402Z,372
2017-12-27T13:37:04.822Z,408
2017-12-27T13:38:06.236Z,376
2017-12-27T13:39:07.644Z,392
2017-12-27T13:40:09.064Z,348
2017-12-27T13:41:10.473Z,348
2017-12-27T13:42:11.890Z,284
2017-12-27T13:43:13.303Z,264
2017-12-27T13:44:14.724Z,316
2017-12-27T13:45:16.217Z,304
2017-12-27T13:46:17.657Z,284
2017-12-27T13:47:19.125Z,232
2017-12-27T13:48:20.494Z,204
2017-12-27T13:49:21.921Z,208
2017-12-27T13:50:23.335Z,228
2017-12-27T13:51:24.753Z,236
2017-12-27T13:52:26.164Z,260
2017-12-27T13:53:27.580Z,248
2017-12-27T13:54:29.001Z,296
2017-12-27T13:55:30.404Z,300
2017-12-27T13:56:31.829Z,260
2017-12-27T13:57:33.247Z,244
2017-12-27T13:58:35.363Z,252
2017-12-27T13:59:36.791Z,260
2017-12-27T14:00:38.199Z,268
2017-12-27T14:01:39.618Z,332
2017-12-27T14:02:41.023Z,320
2017-12-27T14:03:42.432Z,324
2017-12-27T14:04:43.839Z,288
2017-12-27T14:05:45.266Z,256
2017-12-27T14:06:46.691Z,272
2017-12-27T14:07:48.111Z,292
2017-12-27T14:08:49.528Z,172
2017-12-27T14:09:50.951Z,128
2017-12-27T14:10:52.368Z,116
2017-12-27T14:11:53.778Z,232
2017-12-27T14:12:55.253Z,224
2017-12-27T14:13:56.640Z,236
2017-12-27T14:14:58.131Z,228
2017-12-27T14:15:59.477Z,228
2017-12-27T14:17:00.891Z,224
2017-12-27T14:18:02.309Z,204
2017-12-27T14:19:03.741Z,192
2017-12-27T14:20:05.161Z,200
2017-12-27T14:21:06.567Z,200
2017-12-27T14:22:07.989Z,184
2017-12-27T14:23:09.399Z,188
2017-12-27T14:24:10.824Z,176
2017-12-27T14:25:12.250Z,168
2017-12-27T14:26:13.654Z,140
2017-12-27T14:27:15.059Z,136
2017-12-27T14:28:16.480Z,132
2017-12-27T14:29:17.900Z,128
2017-12-27T14:30:19.316Z,152
2017-12-27T14:31:20.735Z,272
2017-12-27T14:32:22.137Z,616
2017-12-27T14:33:23.562Z,892
2017-12-27T14:34:24.976Z,1048
2017-12-27T14:35:26.404Z,1032